sensor_id;sensor_type;location;lat;lon;timestamp;pressure;altitude;pressure_sealevel;temperature;humidity
24306;BME280;12423;48.768;8.850;2022-09-28T00:00:17;95313.53;;;7.84;100.00
24306;BME280;12423;48.768;8.850;2022-09-28T00:02:18;95314.22;;;7.86;100.00
24306;BME280;12423;48.768;8.850;2022-09-28T00:04:19;95311.72;;;7.84;100.00
24306;BME280;12423;48.768;8.850;2022-09-28T00:06:22;95298.72;;;7.81;100.00
24306;BME280;12423;48.768;8.850;2022-09-28T00:08:26;95294.59;;;7.87;100.00
24306;BME280;12423;48.768;8.850;2022-09-28T00:10:27;95297.75;;;7.82;100.00
24306;BME280;12423;48.768;8.850;2022-09-28T00:12:28;95294.22;;;7.82;100.00
24306;BME280;12423;48.768;8.850;2022-09-28T00:14:30;95299.44;;;7.91;100.00
24306;BME280;12423;48.768;8.850;2022-09-28T00:16:35;95280.00;;;7.91;100.00
24306;BME280;12423;48.768;8.850;2022-09-28T00:18:36;95277.16;;;7.84;100.00
24306;BME280;12423;48.768;8.850;2022-09-28T00:20:37;95279.84;;;7.92;100.00
24306;BME280;12423;48.768;8.850;2022-09-28T00:22:38;95277.84;;;7.94;100.00
24306;BME280;12423;48.768;8.850;2022-09-28T00:24:39;95275.50;;;7.91;100.00
24306;BME280;12423;48.768;8.850;2022-09-28T00:26:51;95271.72;;;7.94;100.00
24306;BME280;12423;48.768;8.850;2022-09-28T00:28:54;95259.41;;;7.93;100.00
24306;BME280;12423;48.768;8.850;2022-09-28T00:30:56;95256.59;;;7.94;100.00
24306;BME280;12423;48.768;8.850;2022-09-28T00:32:57;95247.13;;;7.92;100.00
24306;BME280;12423;48.768;8.850;2022-09-28T00:34:58;95240.78;;;7.93;100.00
24306;BME280;12423;48.768;8.850;2022-09-28T00:37:01;95251.13;;;7.96;100.00
24306;BME280;12423;48.768;8.850;2022-09-28T00:39:06;95238.66;;;7.97;100.00
24306;BME280;12423;48.768;8.850;2022-09-28T00:41:10;95243.97;;;7.97;100.00
24306;BME280;12423;48.768;8.850;2022-09-28T00:43:19;95225.69;;;8.02;100.00
24306;BME280;12423;48.768;8.850;2022-09-28T00:45:21;95213.41;;;8.01;100.00
24306;BME280;12423;48.768;8.850;2022-09-28T00:47:54;95209.09;;;8.00;100.00
24306;BME280;12423;48.768;8.850;2022-09-28T00:50:06;95210.44;;;8.04;100.00
24306;BME280;12423;48.768;8.850;2022-09-28T00:52:11;95209.44;;;8.05;100.00
24306;BME280;12423;48.768;8.850;2022-09-28T00:54:14;95197.00;;;8.05;100.00
24306;BME280;12423;48.768;8.850;2022-09-28T00:56:18;95190.34;;;8.09;100.00
24306;BME280;12423;48.768;8.850;2022-09-28T00:58:24;95200.81;;;8.11;100.00
24306;BME280;12423;48.768;8.850;2022-09-28T01:00:27;95186.06;;;8.17;100.00
24306;BME280;12423;48.768;8.850;2022-09-28T01:02:28;95189.03;;;8.14;100.00
24306;BME280;12423;48.768;8.850;2022-09-28T01:04:29;95179.88;;;8.08;100.00
24306;BME280;12423;48.768;8.850;2022-09-28T01:06:33;95174.88;;;8.13;100.00
24306;BME280;12423;48.768;8.850;2022-09-28T01:08:36;95181.56;;;8.17;100.00
24306;BME280;12423;48.768;8.850;2022-09-28T01:10:38;95181.25;;;8.20;100.00
24306;BME280;12423;48.768;8.850;2022-09-28T01:12:39;95168.59;;;8.22;100.00
24306;BME280;12423;48.768;8.850;2022-09-28T01:14:40;95163.13;;;8.24;100.00
24306;BME280;12423;48.768;8.850;2022-09-28T01:21:54;95157.31;;;8.28;100.00
24306;BME280;12423;48.768;8.850;2022-09-28T01:28:45;95137.03;;;8.36;100.00
24306;BME280;12423;48.768;8.850;2022-09-28T01:31:01;95132.53;;;8.36;100.00
24306;BME280;12423;48.768;8.850;2022-09-28T01:33:06;95134.22;;;8.37;100.00
24306;BME280;12423;48.768;8.850;2022-09-28T01:35:12;95129.06;;;8.36;100.00
24306;BME280;12423;48.768;8.850;2022-09-28T01:37:18;95125.41;;;8.37;100.00
24306;BME280;12423;48.768;8.850;2022-09-28T01:39:31;95116.56;;;8.36;100.00
24306;BME280;12423;48.768;8.850;2022-09-28T01:41:36;95113.25;;;8.34;100.00
24306;BME280;12423;48.768;8.850;2022-09-28T01:43:42;95109.44;;;8.37;100.00
24306;BME280;12423;48.768;8.850;2022-09-28T01:45:48;95108.44;;;8.38;100.00
24306;BME280;12423;48.768;8.850;2022-09-28T01:47:56;95101.13;;;8.40;100.00
24306;BME280;12423;48.768;8.850;2022-09-28T01:50:02;95101.13;;;8.40;100.00
24306;BME280;12423;48.768;8.850;2022-09-28T01:52:18;95094.16;;;8.47;100.00
24306;BME280;12423;48.768;8.850;2022-09-28T01:55:24;95095.16;;;8.46;100.00
24306;BME280;12423;48.768;8.850;2022-09-28T01:57:34;95091.34;;;8.48;100.00
24306;BME280;12423;48.768;8.850;2022-09-28T01:59:42;95072.06;;;8.46;100.00
24306;BME280;12423;48.768;8.850;2022-09-28T02:01:56;95068.56;;;8.46;100.00
24306;BME280;12423;48.768;8.850;2022-09-28T02:04:07;95072.22;;;8.45;100.00
24306;BME280;12423;48.768;8.850;2022-09-28T02:06:16;95060.25;;;8.49;100.00
24306;BME280;12423;48.768;8.850;2022-09-28T02:08:22;95050.63;;;8.48;100.00
24306;BME280;12423;48.768;8.850;2022-09-28T02:10:31;95058.06;;;8.53;100.00
24306;BME280;12423;48.768;8.850;2022-09-28T02:12:36;95053.78;;;8.52;100.00
24306;BME280;12423;48.768;8.850;2022-09-28T02:14:40;95054.41;;;8.54;100.00
24306;BME280;12423;48.768;8.850;2022-09-28T02:16:46;95052.25;;;8.57;100.00
24306;BME280;12423;48.768;8.850;2022-09-28T02:18:47;95059.09;;;8.60;100.00
24306;BME280;12423;48.768;8.850;2022-09-28T02:20:56;95047.91;;;8.64;100.00
24306;BME280;12423;48.768;8.850;2022-09-28T02:23:00;95045.75;;;8.68;100.00
24306;BME280;12423;48.768;8.850;2022-09-28T02:25:07;95055.56;;;8.67;100.00
24306;BME280;12423;48.768;8.850;2022-09-28T02:27:14;95048.09;;;8.63;100.00
24306;BME280;12423;48.768;8.850;2022-09-28T02:29:17;95041.59;;;8.65;100.00
24306;BME280;12423;48.768;8.850;2022-09-28T02:31:18;95047.09;;;8.64;100.00
24306;BME280;12423;48.768;8.850;2022-09-28T02:33:23;95038.75;;;8.67;100.00
24306;BME280;12423;48.768;8.850;2022-09-28T02:35:27;95039.56;;;8.76;100.00
24306;BME280;12423;48.768;8.850;2022-09-28T02:37:28;95036.25;;;8.82;100.00
24306;BME280;12423;48.768;8.850;2022-09-28T02:39:29;95034.22;;;8.84;100.00
24306;BME280;12423;48.768;8.850;2022-09-28T02:50:45;95033.56;;;8.90;100.00
24306;BME280;12423;48.768;8.850;2022-09-28T02:55:16;95022.75;;;8.83;100.00
24306;BME280;12423;48.768;8.850;2022-09-28T02:59:52;95019.41;;;8.90;100.00
24306;BME280;12423;48.768;8.850;2022-09-28T03:04:43;95015.09;;;8.89;100.00
24306;BME280;12423;48.768;8.850;2022-09-28T03:06:38;95017.91;;;8.87;100.00
24306;BME280;12423;48.768;8.850;2022-09-28T03:08:47;95013.44;;;8.88;100.00
24306;BME280;12423;48.768;8.850;2022-09-28T03:13:02;95008.78;;;8.81;100.00
24306;BME280;12423;48.768;8.850;2022-09-28T03:15:13;95013.78;;;8.84;100.00
24306;BME280;12423;48.768;8.850;2022-09-28T03:17:19;95013.28;;;8.81;100.00
24306;BME280;12423;48.768;8.850;2022-09-28T03:19:24;95014.94;;;8.82;100.00
24306;BME280;12423;48.768;8.850;2022-09-28T03:21:27;95018.25;;;8.84;100.00
24306;BME280;12423;48.768;8.850;2022-09-28T03:23:28;95019.94;;;8.85;100.00
24306;BME280;12423;48.768;8.850;2022-09-28T03:25:29;95020.41;;;8.89;100.00
24306;BME280;12423;48.768;8.850;2022-09-28T03:27:30;95025.56;;;8.90;100.00
24306;BME280;12423;48.768;8.850;2022-09-28T03:29:31;95030.38;;;8.95;100.00
24306;BME280;12423;48.768;8.850;2022-09-28T03:31:37;95042.53;;;8.89;100.00
24306;BME280;12423;48.768;8.850;2022-09-28T03:33:38;95043.53;;;8.96;100.00
24306;BME280;12423;48.768;8.850;2022-09-28T03:35:39;95050.16;;;9.00;100.00
24306;BME280;12423;48.768;8.850;2022-09-28T03:37:40;95050.19;;;8.92;100.00
24306;BME280;12423;48.768;8.850;2022-09-28T03:39:41;95051.91;;;8.77;100.00
24306;BME280;12423;48.768;8.850;2022-09-28T03:41:42;95050.75;;;8.63;100.00
24306;BME280;12423;48.768;8.850;2022-09-28T03:43:43;95057.91;;;8.62;100.00
24306;BME280;12423;48.768;8.850;2022-09-28T03:45:51;95060.56;;;8.54;100.00
24306;BME280;12423;48.768;8.850;2022-09-28T03:47:53;95047.44;;;8.53;100.00
24306;BME280;12423;48.768;8.850;2022-09-28T03:49:53;95048.63;;;8.50;100.00
24306;BME280;12423;48.768;8.850;2022-09-28T03:51:54;95051.59;;;8.47;100.00
24306;BME280;12423;48.768;8.850;2022-09-28T03:53:58;95052.91;;;8.43;100.00
24306;BME280;12423;48.768;8.850;2022-09-28T03:56:04;95054.91;;;8.41;100.00
24306;BME280;12423;48.768;8.850;2022-09-28T03:58:07;95048.94;;;8.47;100.00
24306;BME280;12423;48.768;8.850;2022-09-28T04:00:08;95045.47;;;8.46;100.00
24306;BME280;12423;48.768;8.850;2022-09-28T04:02:15;95043.94;;;8.44;100.00
24306;BME280;12423;48.768;8.850;2022-09-28T04:04:17;95045.06;;;8.41;100.00
24306;BME280;12423;48.768;8.850;2022-09-28T04:06:19;95046.75;;;8.42;100.00
24306;BME280;12423;48.768;8.850;2022-09-28T04:08:20;95040.59;;;8.42;100.00
24306;BME280;12423;48.768;8.850;2022-09-28T04:10:21;95040.31;;;8.45;100.00
24306;BME280;12423;48.768;8.850;2022-09-28T04:12:22;95036.28;;;8.49;100.00
24306;BME280;12423;48.768;8.850;2022-09-28T04:14:23;95036.63;;;8.46;100.00
24306;BME280;12423;48.768;8.850;2022-09-28T04:16:24;95052.91;;;8.43;100.00
24306;BME280;12423;48.768;8.850;2022-09-28T04:18:39;95041.59;;;8.41;100.00
24306;BME280;12423;48.768;8.850;2022-09-28T04:21:07;95037.63;;;8.37;100.00
24306;BME280;12423;48.768;8.850;2022-09-28T04:23:14;95039.09;;;8.31;100.00
24306;BME280;12423;48.768;8.850;2022-09-28T04:25:17;95035.63;;;8.30;100.00
24306;BME280;12423;48.768;8.850;2022-09-28T04:27:18;95028.28;;;8.33;100.00
24306;BME280;12423;48.768;8.850;2022-09-28T04:29:38;95042.41;;;8.33;100.00
24306;BME280;12423;48.768;8.850;2022-09-28T04:31:46;95043.75;;;8.29;100.00
24306;BME280;12423;48.768;8.850;2022-09-28T04:33:49;95040.63;;;8.25;100.00
24306;BME280;12423;48.768;8.850;2022-09-28T04:35:50;95042.09;;;8.20;100.00
24306;BME280;12423;48.768;8.850;2022-09-28T04:37:51;95046.25;;;8.22;100.00
24306;BME280;12423;48.768;8.850;2022-09-28T04:39:52;95045.06;;;8.25;100.00
24306;BME280;12423;48.768;8.850;2022-09-28T04:41:53;95044.59;;;8.21;100.00
24306;BME280;12423;48.768;8.850;2022-09-28T04:43:54;95047.41;;;8.20;100.00
24306;BME280;12423;48.768;8.850;2022-09-28T04:45:59;95046.25;;;8.22;100.00
24306;BME280;12423;48.768;8.850;2022-09-28T04:48:07;95046.59;;;8.19;100.00
24306;BME280;12423;48.768;8.850;2022-09-28T04:50:33;95039.78;;;8.17;100.00
24306;BME280;12423;48.768;8.850;2022-09-28T04:52:46;95042.94;;;8.20;100.00
24306;BME280;12423;48.768;8.850;2022-09-28T04:54:49;95037.94;;;8.17;100.00
24306;BME280;12423;48.768;8.850;2022-09-28T04:56:50;95036.28;;;8.16;100.00
24306;BME280;12423;48.768;8.850;2022-09-28T04:58:52;95041.59;;;8.16;100.00
24306;BME280;12423;48.768;8.850;2022-09-28T05:01:02;95041.91;;;8.13;100.00
24306;BME280;12423;48.768;8.850;2022-09-28T05:03:21;95040.94;;;8.14;100.00
24306;BME280;12423;48.768;8.850;2022-09-28T05:05:46;95054.22;;;8.14;100.00
24306;BME280;12423;48.768;8.850;2022-09-28T05:08:05;95059.38;;;8.16;100.00
24306;BME280;12423;48.768;8.850;2022-09-28T05:10:06;95059.22;;;8.17;100.00
24306;BME280;12423;48.768;8.850;2022-09-28T05:12:08;95052.88;;;8.18;100.00
24306;BME280;12423;48.768;8.850;2022-09-28T05:14:10;95054.91;;;8.16;100.00
24306;BME280;12423;48.768;8.850;2022-09-28T05:16:13;95052.06;;;8.09;100.00
24306;BME280;12423;48.768;8.850;2022-09-28T05:18:34;95043.59;;;8.14;100.00
24306;BME280;12423;48.768;8.850;2022-09-28T05:20:40;95047.41;;;8.11;100.00
24306;BME280;12423;48.768;8.850;2022-09-28T05:22:41;95042.78;;;8.14;100.00
24306;BME280;12423;48.768;8.850;2022-09-28T05:24:43;95041.09;;;8.12;100.00
24306;BME280;12423;48.768;8.850;2022-09-28T05:26:46;95041.75;;;8.15;100.00
24306;BME280;12423;48.768;8.850;2022-09-28T05:28:49;95049.41;;;8.18;100.00
24306;BME280;12423;48.768;8.850;2022-09-28T05:31:09;95058.56;;;8.15;100.00
24306;BME280;12423;48.768;8.850;2022-09-28T05:33:27;95056.72;;;8.16;100.00
24306;BME280;12423;48.768;8.850;2022-09-28T05:35:43;95062.88;;;8.16;100.00
24306;BME280;12423;48.768;8.850;2022-09-28T05:37:44;95067.03;;;8.19;100.00
24306;BME280;12423;48.768;8.850;2022-09-28T05:39:46;95063.53;;;8.18;100.00
24306;BME280;12423;48.768;8.850;2022-09-28T05:41:47;95062.22;;;8.22;100.00
24306;BME280;12423;48.768;8.850;2022-09-28T05:43:48;95080.66;;;8.24;100.00
24306;BME280;12423;48.768;8.850;2022-09-28T05:45:52;95078.50;;;8.19;100.00
24306;BME280;12423;48.768;8.850;2022-09-28T05:47:53;95076.81;;;8.26;100.00
24306;BME280;12423;48.768;8.850;2022-09-28T05:49:56;95075.50;;;8.22;100.00
24306;BME280;12423;48.768;8.850;2022-09-28T05:51:57;95072.84;;;8.22;100.00
24306;BME280;12423;48.768;8.850;2022-09-28T05:53:58;95072.84;;;8.22;100.00
24306;BME280;12423;48.768;8.850;2022-09-28T05:56:01;95072.38;;;8.27;100.00
24306;BME280;12423;48.768;8.850;2022-09-28T05:58:05;95079.84;;;8.32;100.00
24306;BME280;12423;48.768;8.850;2022-09-28T06:00:07;95073.19;;;8.27;100.00
24306;BME280;12423;48.768;8.850;2022-09-28T06:02:13;95079.16;;;8.29;100.00
24306;BME280;12423;48.768;8.850;2022-09-28T06:04:16;95071.88;;;8.32;100.00
24306;BME280;12423;48.768;8.850;2022-09-28T06:06:18;95077.84;;;8.34;100.00
24306;BME280;12423;48.768;8.850;2022-09-28T06:08:20;95076.19;;;8.41;100.00
24306;BME280;12423;48.768;8.850;2022-09-28T06:10:29;95082.69;;;8.38;100.00
24306;BME280;12423;48.768;8.850;2022-09-28T06:12:33;95086.00;;;8.40;100.00
24306;BME280;12423;48.768;8.850;2022-09-28T06:14:40;95078.00;;;8.40;100.00
24306;BME280;12423;48.768;8.850;2022-09-28T06:16:41;95083.69;;;8.45;100.00
24306;BME280;12423;48.768;8.850;2022-09-28T06:18:43;95085.00;;;8.49;100.00
24306;BME280;12423;48.768;8.850;2022-09-28T06:21:06;95087.66;;;8.49;100.00
24306;BME280;12423;48.768;8.850;2022-09-28T06:23:15;95084.34;;;8.47;100.00
24306;BME280;12423;48.768;8.850;2022-09-28T06:25:17;95100.81;;;8.51;100.00
24306;BME280;12423;48.768;8.850;2022-09-28T06:27:18;95101.50;;;8.53;100.00
24306;BME280;12423;48.768;8.850;2022-09-28T06:29:19;95097.16;;;8.60;100.00
24306;BME280;12423;48.768;8.850;2022-09-28T06:31:20;95099.66;;;8.62;100.00
24306;BME280;12423;48.768;8.850;2022-09-28T06:33:24;95104.66;;;8.65;100.00
24306;BME280;12423;48.768;8.850;2022-09-28T06:35:28;95109.81;;;8.58;100.00
24306;BME280;12423;48.768;8.850;2022-09-28T06:37:30;95108.97;;;8.58;100.00
24306;BME280;12423;48.768;8.850;2022-09-28T06:39:32;95118.94;;;8.64;100.00
24306;BME280;12423;48.768;8.850;2022-09-28T06:41:33;95109.13;;;8.64;100.00
24306;BME280;12423;48.768;8.850;2022-09-28T06:43:46;95122.25;;;8.49;100.00
24306;BME280;12423;48.768;8.850;2022-09-28T06:46:07;95129.91;;;8.53;100.00
24306;BME280;12423;48.768;8.850;2022-09-28T06:48:42;95119.91;;;8.38;100.00
24306;BME280;12423;48.768;8.850;2022-09-28T06:50:48;95128.72;;;8.30;100.00
24306;BME280;12423;48.768;8.850;2022-09-28T06:53:05;95136.19;;;8.19;100.00
24306;BME280;12423;48.768;8.850;2022-09-28T06:55:29;95138.50;;;8.14;100.00
24306;BME280;12423;48.768;8.850;2022-09-28T06:57:32;95138.19;;;8.17;100.00
24306;BME280;12423;48.768;8.850;2022-09-28T06:59:33;95138.19;;;8.17;100.00
24306;BME280;12423;48.768;8.850;2022-09-28T07:01:35;95140.34;;;8.21;100.00
24306;BME280;12423;48.768;8.850;2022-09-28T07:03:56;95132.34;;;8.29;100.00
24306;BME280;12423;48.768;8.850;2022-09-28T07:06:16;95128.41;;;8.34;100.00
24306;BME280;12423;48.768;8.850;2022-09-28T07:08:47;95140.38;;;8.46;100.00
24306;BME280;12423;48.768;8.850;2022-09-28T07:11:09;95145.22;;;8.51;100.00
24306;BME280;12423;48.768;8.850;2022-09-28T07:13:25;95149.72;;;8.58;100.00
24306;BME280;12423;48.768;8.850;2022-09-28T07:15:28;95154.88;;;8.60;100.00
24306;BME280;12423;48.768;8.850;2022-09-28T07:17:30;95151.91;;;8.63;100.00
24306;BME280;12423;48.768;8.850;2022-09-28T07:19:34;95148.88;;;8.58;100.00
24306;BME280;12423;48.768;8.850;2022-09-28T07:21:36;95154.03;;;8.59;100.00
24306;BME280;12423;48.768;8.850;2022-09-28T07:23:39;95162.03;;;8.67;100.00
24306;BME280;12423;48.768;8.850;2022-09-28T07:25:56;95166.50;;;8.51;100.00
24306;BME280;12423;48.768;8.850;2022-09-28T07:28:17;95171.00;;;8.50;100.00
24306;BME280;12423;48.768;8.850;2022-09-28T07:30:36;95174.66;;;8.65;100.00
24306;BME280;12423;48.768;8.850;2022-09-28T07:32:44;95180.31;;;8.79;100.00
24306;BME280;12423;48.768;8.850;2022-09-28T07:35:09;95191.31;;;8.84;100.00
24306;BME280;12423;48.768;8.850;2022-09-28T07:37:19;95181.16;;;8.96;100.00
24306;BME280;12423;48.768;8.850;2022-09-28T07:39:21;95185.75;;;9.35;100.00
24306;BME280;12423;48.768;8.850;2022-09-28T07:41:22;95191.91;;;9.44;100.00
24306;BME280;12423;48.768;8.850;2022-09-28T07:43:32;95192.38;;;9.55;100.00
24306;BME280;12423;48.768;8.850;2022-09-28T07:45:33;95199.84;;;9.60;100.00
24306;BME280;12423;48.768;8.850;2022-09-28T07:47:36;95198.22;;;9.51;100.00
24306;BME280;12423;48.768;8.850;2022-09-28T07:50:04;95202.56;;;9.35;100.00
24306;BME280;12423;48.768;8.850;2022-09-28T07:52:14;95206.91;;;9.28;100.00
24306;BME280;12423;48.768;8.850;2022-09-28T07:54:35;95203.91;;;9.39;100.00
24306;BME280;12423;48.768;8.850;2022-09-28T07:57:05;95210.19;;;9.55;100.00
24306;BME280;12423;48.768;8.850;2022-09-28T07:59:29;95206.03;;;9.61;100.00
24306;BME280;12423;48.768;8.850;2022-09-28T08:01:49;95216.78;;;9.84;100.00
24306;BME280;12423;48.768;8.850;2022-09-28T08:03:51;95219.44;;;9.92;100.00
24306;BME280;12423;48.768;8.850;2022-09-28T08:06:00;95214.44;;;9.89;100.00
24306;BME280;12423;48.768;8.850;2022-09-28T08:08:01;95222.47;;;10.20;100.00
24306;BME280;12423;48.768;8.850;2022-09-28T08:10:03;95215.72;;;10.01;100.00
24306;BME280;12423;48.768;8.850;2022-09-28T08:12:25;95224.44;;;9.95;100.00
24306;BME280;12423;48.768;8.850;2022-09-28T08:14:35;95225.09;;;9.89;100.00
24306;BME280;12423;48.768;8.850;2022-09-28T08:16:55;95231.78;;;9.85;100.00
24306;BME280;12423;48.768;8.850;2022-09-28T08:19:07;95224.66;;;9.77;100.00
24306;BME280;12423;48.768;8.850;2022-09-28T08:21:09;95231.97;;;9.75;100.00
24306;BME280;12423;48.768;8.850;2022-09-28T08:23:29;95240.84;;;9.67;100.00
24306;BME280;12423;48.768;8.850;2022-09-28T08:25:29;95242.16;;;9.71;100.00
24306;BME280;12423;48.768;8.850;2022-09-28T08:27:30;95244.00;;;9.71;100.00
24306;BME280;12423;48.768;8.850;2022-09-28T08:29:31;95254.97;;;9.76;100.00
24306;BME280;12423;48.768;8.850;2022-09-28T08:31:49;95254.47;;;9.81;100.00
24306;BME280;12423;48.768;8.850;2022-09-28T08:34:08;95250.59;;;9.83;100.00
24306;BME280;12423;48.768;8.850;2022-09-28T08:36:27;95250.09;;;9.88;100.00
24306;BME280;12423;48.768;8.850;2022-09-28T08:38:47;95247.59;;;9.86;100.00
24306;BME280;12423;48.768;8.850;2022-09-28T08:46:02;95248.78;;;9.92;100.00
24306;BME280;12423;48.768;8.850;2022-09-28T08:48:27;95256.78;;;9.92;100.00
24306;BME280;12423;48.768;8.850;2022-09-28T08:50:58;95256.78;;;9.84;100.00
24306;BME280;12423;48.768;8.850;2022-09-28T08:53:35;95259.28;;;9.93;100.00
24306;BME280;12423;48.768;8.850;2022-09-28T08:55:56;95263.09;;;9.91;100.00
24306;BME280;12423;48.768;8.850;2022-09-28T08:58:23;95257.75;;;9.99;100.00
24306;BME280;12423;48.768;8.850;2022-09-28T09:00:32;95260.53;;;10.06;100.00
24306;BME280;12423;48.768;8.850;2022-09-28T09:02:35;95266.25;;;9.94;100.00
24306;BME280;12423;48.768;8.850;2022-09-28T09:04:48;95265.25;;;9.95;100.00
24306;BME280;12423;48.768;8.850;2022-09-28T09:10:28;95270.00;;;10.25;100.00
24306;BME280;12423;48.768;8.850;2022-09-28T09:12:29;95262.41;;;10.45;100.00
24306;BME280;12423;48.768;8.850;2022-09-28T09:14:43;95273.53;;;10.57;100.00
24306;BME280;12423;48.768;8.850;2022-09-28T09:17:04;95275.25;;;10.49;100.00
24306;BME280;12423;48.768;8.850;2022-09-28T09:19:44;95286.41;;;10.53;100.00
24306;BME280;12423;48.768;8.850;2022-09-28T09:24:27;95280.72;;;10.56;100.00
24306;BME280;12423;48.768;8.850;2022-09-28T09:26:37;95287.69;;;10.57;100.00
24306;BME280;12423;48.768;8.850;2022-09-28T09:36:16;95291.69;;;10.93;100.00
24306;BME280;12423;48.768;8.850;2022-09-28T09:46:24;95297.69;;;10.95;100.00
24306;BME280;12423;48.768;8.850;2022-09-28T09:51:23;95299.41;;;11.11;100.00
24306;BME280;12423;48.768;8.850;2022-09-28T09:53:42;95301.19;;;11.18;100.00
24306;BME280;12423;48.768;8.850;2022-09-28T09:55:46;95302.09;;;11.34;100.00
24306;BME280;12423;48.768;8.850;2022-09-28T09:58:36;95302.66;;;11.44;100.00
24306;BME280;12423;48.768;8.850;2022-09-28T10:00:51;95301.56;;;11.38;100.00
24306;BME280;12423;48.768;8.850;2022-09-28T10:03:22;95302.59;;;11.52;100.00
24306;BME280;12423;48.768;8.850;2022-09-28T10:05:29;95307.47;;;11.49;100.00
24306;BME280;12423;48.768;8.850;2022-09-28T10:07:42;95310.97;;;11.49;100.00
24306;BME280;12423;48.768;8.850;2022-09-28T10:09:46;95304.88;;;11.40;100.00
24306;BME280;12423;48.768;8.850;2022-09-28T10:12:14;95308.66;;;11.46;100.00
24306;BME280;12423;48.768;8.850;2022-09-28T10:14:23;95307.06;;;11.37;100.00
24306;BME280;12423;48.768;8.850;2022-09-28T10:16:36;95304.88;;;11.17;100.00
24306;BME280;12423;48.768;8.850;2022-09-28T10:18:42;95315.56;;;11.17;100.00
24306;BME280;12423;48.768;8.850;2022-09-28T10:21:13;95312.34;;;11.45;100.00
24306;BME280;12423;48.768;8.850;2022-09-28T10:23:28;95310.56;;;11.37;100.00
24306;BME280;12423;48.768;8.850;2022-09-28T10:25:32;95305.56;;;11.34;100.00
24306;BME280;12423;48.768;8.850;2022-09-28T10:27:40;95304.28;;;11.30;100.00
24306;BME280;12423;48.768;8.850;2022-09-28T10:29:53;95294.66;;;11.21;100.00
24306;BME280;12423;48.768;8.850;2022-09-28T10:31:55;95304.63;;;11.27;100.00
24306;BME280;12423;48.768;8.850;2022-09-28T10:34:05;95313.41;;;11.36;100.00
24306;BME280;12423;48.768;8.850;2022-09-28T10:36:08;95310.00;;;11.65;100.00
24306;BME280;12423;48.768;8.850;2022-09-28T10:38:17;95313.72;;;11.79;100.00
24306;BME280;12423;48.768;8.850;2022-09-28T10:42:39;95300.75;;;12.06;100.00
24306;BME280;12423;48.768;8.850;2022-09-28T10:47:03;95310.09;;;12.25;100.00
24306;BME280;12423;48.768;8.850;2022-09-28T10:49:16;95308.59;;;12.37;100.00
24306;BME280;12423;48.768;8.850;2022-09-28T10:51:43;95304.47;;;12.05;100.00
24306;BME280;12423;48.768;8.850;2022-09-28T10:54:15;95310.53;;;11.98;100.00
24306;BME280;12423;48.768;8.850;2022-09-28T10:56:27;95312.22;;;12.00;100.00
24306;BME280;12423;48.768;8.850;2022-09-28T10:58:37;95322.19;;;12.21;100.00
24306;BME280;12423;48.768;8.850;2022-09-28T11:00:42;95311.47;;;12.35;100.00
24306;BME280;12423;48.768;8.850;2022-09-28T11:02:51;95319.88;;;12.62;100.00
24306;BME280;12423;48.768;8.850;2022-09-28T11:04:57;95314.75;;;12.82;100.00
24306;BME280;12423;48.768;8.850;2022-09-28T11:07:01;95317.22;;;12.47;100.00
24306;BME280;12423;48.768;8.850;2022-09-28T11:09:05;95308.63;;;12.22;100.00
24306;BME280;12423;48.768;8.850;2022-09-28T11:11:09;95307.78;;;12.37;100.00
24306;BME280;12423;48.768;8.850;2022-09-28T11:13:11;95316.72;;;12.59;100.00
24306;BME280;12423;48.768;8.850;2022-09-28T11:15:19;95308.22;;;12.55;100.00
24306;BME280;12423;48.768;8.850;2022-09-28T11:17:31;95310.81;;;12.63;100.00
24306;BME280;12423;48.768;8.850;2022-09-28T11:19:32;95302.28;;;12.75;100.00
24306;BME280;12423;48.768;8.850;2022-09-28T11:21:42;95302.69;;;14.01;100.00
24306;BME280;12423;48.768;8.850;2022-09-28T11:24:00;95296.88;;;14.61;100.00
24306;BME280;12423;48.768;8.850;2022-09-28T11:26:06;95296.16;;;14.17;100.00
24306;BME280;12423;48.768;8.850;2022-09-28T11:28:20;95298.66;;;14.18;100.00
24306;BME280;12423;48.768;8.850;2022-09-28T11:43:10;95286.19;;;15.89;90.27
24306;BME280;12423;48.768;8.850;2022-09-28T11:47:45;95282.44;;;15.77;92.47
24306;BME280;12423;48.768;8.850;2022-09-28T11:49:53;95280.13;;;15.67;94.15
24306;BME280;12423;48.768;8.850;2022-09-28T11:52:01;95293.19;;;16.30;88.95
24306;BME280;12423;48.768;8.850;2022-09-28T11:54:11;95285.50;;;16.34;84.14
24306;BME280;12423;48.768;8.850;2022-09-28T11:56:33;95281.41;;;15.98;87.96
24306;BME280;12423;48.768;8.850;2022-09-28T11:58:42;95278.09;;;15.62;88.28
24306;BME280;12423;48.768;8.850;2022-09-28T12:00:49;95283.47;;;14.74;89.08
24306;BME280;12423;48.768;8.850;2022-09-28T12:03:03;95290.78;;;14.45;92.97
24306;BME280;12423;48.768;8.850;2022-09-28T12:05:22;95283.72;;;14.03;91.58
24306;BME280;12423;48.768;8.850;2022-09-28T12:07:45;95284.06;;;14.28;89.18
24306;BME280;12423;48.768;8.850;2022-09-28T12:10:13;95287.22;;;14.38;90.39
24306;BME280;12423;48.768;8.850;2022-09-28T12:12:28;95289.81;;;13.90;89.33
24306;BME280;12423;48.768;8.850;2022-09-28T12:14:37;95285.53;;;14.02;92.77
24306;BME280;12423;48.768;8.850;2022-09-28T12:16:43;95285.94;;;14.27;93.68
24306;BME280;12423;48.768;8.850;2022-09-28T12:18:55;95287.78;;;13.98;95.28
24306;BME280;12423;48.768;8.850;2022-09-28T12:21:08;95285.94;;;14.27;94.66
24306;BME280;12423;48.768;8.850;2022-09-28T12:23:17;95285.38;;;14.80;91.82
24306;BME280;12423;48.768;8.850;2022-09-28T12:25:22;95285.31;;;14.67;90.52
24306;BME280;12423;48.768;8.850;2022-09-28T12:29:39;95279.84;;;14.95;85.18
24306;BME280;12423;48.768;8.850;2022-09-28T12:31:55;95285.19;;;14.88;83.00
24306;BME280;12423;48.768;8.850;2022-09-28T12:33:58;95284.16;;;14.48;82.93
24306;BME280;12423;48.768;8.850;2022-09-28T12:37:22;95284.59;;;14.16;88.04
24306;BME280;12423;48.768;8.850;2022-09-28T12:43:57;95277.31;;;13.75;89.57